createdAt,value
2018-12-06T00:00:29.366Z,7.69
2018-12-06T00:03:34.006Z,7.94
2018-12-06T00:06:38.650Z,7.89
2018-12-06T00:09:43.333Z,7.87
2018-12-06T00:12:47.838Z,7.84
2018-12-06T00:15:52.370Z,7.81
2018-12-06T00:19:08.440Z,7.59
2018-12-06T00:22:13.085Z,7.72
2018-12-06T00:25:17.641Z,7.86
2018-12-06T00:28:22.186Z,7.78
2018-12-06T00:31:26.791Z,7.78
2018-12-06T00:34:31.284Z,7.96
2018-12-06T00:37:35.885Z,7.78
2018-12-06T00:40:40.402Z,7.55
2018-12-06T00:43:44.979Z,7.84
2018-12-06T00:46:49.564Z,7.95
2018-12-06T00:49:54.101Z,8.01
2018-12-06T00:52:58.731Z,7.96
2018-12-06T00:56:03.259Z,8.08
2018-12-06T00:59:07.805Z,8.18
2018-12-06T01:02:12.436Z,7.99
2018-12-06T01:05:16.985Z,8.01
2018-12-06T01:08:21.545Z,8.01
2018-12-06T01:11:26.114Z,7.88
2018-12-06T01:14:35.765Z,7.87
2018-12-06T01:17:40.288Z,7.83
2018-12-06T01:20:44.801Z,7.78
2018-12-06T01:23:49.386Z,7.99
2018-12-06T01:26:53.950Z,8.08
2018-12-06T01:29:58.507Z,8.10
2018-12-06T01:33:03.189Z,8.16
2018-12-06T01:36:07.735Z,8.06
2018-12-06T01:39:12.304Z,8.22
2018-12-06T01:42:16.863Z,8.20
2018-12-06T01:45:21.598Z,8.04
2018-12-06T01:48:26.413Z,8.25
2018-12-06T01:51:30.934Z,8.28
2018-12-06T01:54:35.507Z,7.80
2018-12-06T01:57:40.185Z,7.87
2018-12-06T02:00:44.901Z,7.86
2018-12-06T02:03:49.428Z,7.79
2018-12-06T02:06:53.942Z,8.02
2018-12-06T02:09:58.569Z,7.98
2018-12-06T02:13:03.195Z,8.06
2018-12-06T02:16:07.905Z,8.20
2018-12-06T02:19:12.430Z,8.23
2018-12-06T02:22:17.010Z,8.11
2018-12-06T02:25:21.507Z,8.09
2018-12-06T02:28:26.109Z,8.18
2018-12-06T02:31:30.651Z,8.11
2018-12-06T02:34:35.157Z,8.09
2018-12-06T02:37:39.728Z,7.99
2018-12-06T02:40:44.252Z,7.98
2018-12-06T02:43:48.813Z,8.00
2018-12-06T02:46:53.326Z,7.87
2018-12-06T02:49:57.877Z,7.96
2018-12-06T02:53:02.411Z,8.01
2018-12-06T02:56:06.999Z,7.85
2018-12-06T02:59:11.513Z,7.92
2018-12-06T03:02:16.097Z,7.54
2018-12-06T03:05:20.615Z,7.78
2018-12-06T03:08:25.653Z,7.78
2018-12-06T03:11:30.242Z,7.81
2018-12-06T03:14:34.759Z,7.86
2018-12-06T03:17:41.381Z,8.04
2018-12-06T03:20:45.917Z,8.20
2018-12-06T03:23:50.477Z,8.12
2018-12-06T03:26:54.987Z,8.21
2018-12-06T03:29:59.590Z,8.35
2018-12-06T03:33:04.214Z,8.19
2018-12-06T03:36:08.802Z,8.29
2018-12-06T03:39:13.355Z,8.21
2018-12-06T03:42:17.910Z,8.36
2018-12-06T03:45:22.534Z,8.39
2018-12-06T03:48:27.049Z,8.42
2018-12-06T03:51:31.591Z,8.39
2018-12-06T03:54:36.391Z,8.39
2018-12-06T03:57:40.911Z,8.52
2018-12-06T04:00:45.535Z,8.49
2018-12-06T04:03:50.019Z,8.46
2018-12-06T04:06:54.617Z,8.08
2018-12-06T04:09:59.161Z,7.80
2018-12-06T04:13:03.720Z,7.70
2018-12-06T04:16:08.289Z,7.80
2018-12-06T04:19:12.808Z,7.85
2018-12-06T04:22:17.385Z,7.89
2018-12-06T04:25:21.923Z,7.95
2018-12-06T04:28:26.445Z,7.96
2018-12-06T04:31:30.988Z,7.75
2018-12-06T04:34:37.565Z,7.78
2018-12-06T04:37:42.193Z,7.79
2018-12-06T04:40:46.786Z,7.64
2018-12-06T04:43:51.389Z,7.81
2018-12-06T04:46:56.038Z,7.50
2018-12-06T04:50:00.561Z,7.36
2018-12-06T04:53:05.187Z,7.75
2018-12-06T04:56:09.790Z,7.48
2018-12-06T04:59:14.546Z,7.52
2018-12-06T05:02:19.123Z,7.34
2018-12-06T05:05:23.741Z,7.52
2018-12-06T05:08:28.369Z,7.65
2018-12-06T05:11:32.921Z,7.30
2018-12-06T05:14:37.586Z,7.55
2018-12-06T05:17:42.094Z,7.38
2018-12-06T05:20:46.638Z,7.54
2018-12-06T05:23:51.242Z,7.46
2018-12-06T05:26:55.815Z,7.53
2018-12-06T05:30:00.355Z,7.49
2018-12-06T05:33:04.899Z,7.54
2018-12-06T05:36:09.443Z,7.43
2018-12-06T05:39:14.007Z,7.49
2018-12-06T05:42:18.643Z,7.51
2018-12-06T05:45:23.168Z,7.25
2018-12-06T05:48:27.734Z,7.26
2018-12-06T05:51:32.257Z,7.40
2018-12-06T05:54:36.827Z,7.53
2018-12-06T05:57:41.385Z,7.55
2018-12-06T06:00:45.926Z,7.56
2018-12-06T06:03:50.539Z,7.56
2018-12-06T06:06:57.110Z,7.44
2018-12-06T06:10:01.740Z,7.46
2018-12-06T06:13:06.310Z,7.61
2018-12-06T06:16:10.844Z,7.59
2018-12-06T06:19:15.375Z,7.57
2018-12-06T06:22:21.642Z,7.59
2018-12-06T06:25:26.441Z,7.60
2018-12-06T06:28:30.986Z,7.77
2018-12-06T06:31:35.623Z,7.58
2018-12-06T06:34:40.184Z,7.78
2018-12-06T06:37:44.769Z,7.91
2018-12-06T06:40:49.331Z,7.99
2018-12-06T06:43:55.035Z,7.71
2018-12-06T06:46:59.566Z,7.71
2018-12-06T06:50:04.711Z,7.90
2018-12-06T06:53:09.245Z,7.97
2018-12-06T06:56:14.818Z,8.27
2018-12-06T06:59:25.784Z,8.26
2018-12-06T07:02:26.009Z,8.34
2018-12-06T07:05:30.615Z,8.33
2018-12-06T07:08:35.138Z,8.18
2018-12-06T07:11:39.987Z,8.40
2018-12-06T07:14:44.507Z,8.46
2018-12-06T07:17:49.030Z,8.40
2018-12-06T07:20:53.679Z,8.50
2018-12-06T07:23:58.237Z,8.44
2018-12-06T07:27:02.772Z,8.68
2018-12-06T07:30:12.228Z,8.06
2018-12-06T07:33:13.983Z,7.76
2018-12-06T07:36:18.672Z,8.12
2018-12-06T07:39:23.249Z,8.05
2018-12-06T07:42:27.896Z,8.50
2018-12-06T07:45:32.449Z,8.00
2018-12-06T07:48:37.047Z,8.58
2018-12-06T07:51:41.592Z,8.68
2018-12-06T07:54:46.141Z,8.70
2018-12-06T07:57:50.693Z,9.03
2018-12-06T08:00:55.414Z,8.92
2018-12-06T08:03:59.957Z,9.04
2018-12-06T08:07:04.526Z,9.25
2018-12-06T08:10:09.643Z,8.98
2018-12-06T08:13:14.310Z,8.69
2018-12-06T08:16:19.014Z,8.89
2018-12-06T08:19:23.587Z,9.04
2018-12-06T08:22:28.194Z,9.09
2018-12-06T08:25:32.721Z,9.24
2018-12-06T08:28:37.368Z,8.57
2018-12-06T08:31:42.114Z,8.51
2018-12-06T08:34:46.667Z,8.82
2018-12-06T08:37:51.262Z,8.98
2018-12-06T08:40:55.825Z,9.28
2018-12-06T08:44:00.340Z,9.22
2018-12-06T08:47:05.952Z,8.95
2018-12-06T08:50:10.745Z,8.68
2018-12-06T08:53:15.275Z,8.70
2018-12-06T08:56:19.884Z,8.71
2018-12-06T08:59:24.475Z,8.50
2018-12-06T09:02:29.085Z,8.52
2018-12-06T09:05:33.648Z,8.42
2018-12-06T09:08:38.174Z,8.40
2018-12-06T09:11:42.929Z,8.53
2018-12-06T09:14:47.668Z,8.32
2018-12-06T09:17:52.188Z,8.39
2018-12-06T09:20:56.768Z,8.47
2018-12-06T09:24:01.322Z,8.55
2018-12-06T09:27:06.009Z,8.64
2018-12-06T09:30:10.646Z,8.70
2018-12-06T09:33:15.168Z,8.74
2018-12-06T09:36:19.707Z,8.62
2018-12-06T09:39:24.293Z,8.81
2018-12-06T09:42:28.854Z,9.25
2018-12-06T09:45:33.440Z,8.50
2018-12-06T09:48:37.991Z,8.67
2018-12-06T09:51:42.536Z,8.35
2018-12-06T09:54:47.163Z,8.58
2018-12-06T09:57:51.699Z,8.72
2018-12-06T10:00:56.290Z,8.52
2018-12-06T10:04:00.834Z,8.57
2018-12-06T10:07:05.540Z,8.66
2018-12-06T10:10:10.215Z,9.31
2018-12-06T10:13:14.854Z,9.45
2018-12-06T10:16:19.429Z,9.12
2018-12-06T10:19:23.991Z,9.95
2018-12-06T10:22:28.557Z,10.92
2018-12-06T10:25:33.243Z,11.15
2018-12-06T10:28:37.898Z,10.91
2018-12-06T10:31:42.538Z,10.78
2018-12-06T10:34:53.446Z,11.06
2018-12-06T10:37:53.671Z,10.60
2018-12-06T10:40:58.246Z,10.76
2018-12-06T10:44:03.094Z,11.02
2018-12-06T10:47:07.674Z,11.69
2018-12-06T10:50:12.285Z,11.19
2018-12-06T10:53:16.839Z,11.21
2018-12-06T10:56:21.455Z,11.03
2018-12-06T10:59:26.135Z,11.94
2018-12-06T11:02:36.019Z,12.62
2018-12-06T11:05:40.595Z,12.54
2018-12-06T11:08:45.419Z,12.46
2018-12-06T11:11:50.051Z,12.78
2018-12-06T11:14:54.664Z,13.09
2018-12-06T11:17:59.210Z,12.02
2018-12-06T11:21:03.792Z,11.59
2018-12-06T11:24:08.374Z,11.10
2018-12-06T11:27:12.947Z,11.45
2018-12-06T11:30:17.495Z,11.58
2018-12-06T11:33:22.074Z,10.87
2018-12-06T11:36:26.607Z,10.65
2018-12-06T11:39:31.171Z,11.05
2018-12-06T11:42:35.710Z,11.72
2018-12-06T11:45:40.361Z,12.11
2018-12-06T11:48:45.691Z,12.78
2018-12-06T11:51:50.250Z,12.51
2018-12-06T11:54:54.775Z,12.50
2018-12-06T11:57:59.378Z,12.77
2018-12-06T12:01:03.962Z,12.60
2018-12-06T12:04:09.799Z,12.42
2018-12-06T12:07:14.418Z,12.06
2018-12-06T12:10:19.029Z,12.11
2018-12-06T12:13:23.585Z,12.52
2018-12-06T12:16:28.278Z,12.38
2018-12-06T12:19:32.805Z,11.13
2018-12-06T12:22:37.406Z,11.26
2018-12-06T12:25:41.910Z,11.21
2018-12-06T12:28:46.597Z,11.35
2018-12-06T12:31:51.130Z,11.33
2018-12-06T12:34:55.654Z,11.17
2018-12-06T12:38:00.227Z,10.18
2018-12-06T12:41:04.795Z,10.53
2018-12-06T12:44:10.419Z,11.02
2018-12-06T12:47:14.998Z,11.32
2018-12-06T12:50:19.517Z,10.88
2018-12-06T12:53:24.032Z,10.98
2018-12-06T12:56:28.562Z,10.30
2018-12-06T12:59:33.082Z,10.33
2018-12-06T13:02:37.618Z,10.05
2018-12-06T13:05:42.159Z,10.29
2018-12-06T13:08:48.676Z,10.41
2018-12-06T13:11:53.323Z,10.72
2018-12-06T13:14:59.720Z,10.12
2018-12-06T13:18:05.574Z,10.39
2018-12-06T13:21:10.128Z,10.82
2018-12-06T13:24:14.650Z,10.37
2018-12-06T13:27:19.347Z,10.54
2018-12-06T13:30:23.916Z,10.33
2018-12-06T13:33:28.470Z,10.11
2018-12-06T13:36:33.879Z,10.07
2018-12-06T13:39:38.507Z,9.63
2018-12-06T13:42:43.445Z,9.70
2018-12-06T13:45:47.990Z,9.84
2018-12-06T13:48:52.691Z,9.49
2018-12-06T13:51:57.201Z,9.45
2018-12-06T13:55:01.830Z,9.32
2018-12-06T13:58:06.644Z,9.22
2018-12-06T14:01:11.543Z,8.84
2018-12-06T14:04:17.378Z,8.96
2018-12-06T14:07:21.967Z,8.72
2018-12-06T14:10:26.751Z,8.77
2018-12-06T14:13:31.312Z,8.64
2018-12-06T14:16:36.605Z,8.39
2018-12-06T14:19:41.125Z,8.21
2018-12-06T14:22:45.758Z,7.94
2018-12-06T14:25:50.368Z,7.97
2018-12-06T14:28:55.169Z,8.00
2018-12-06T14:32:02.579Z,8.13
2018-12-06T14:35:08.562Z,8.07
2018-12-06T14:38:13.305Z,8.28
2018-12-06T14:41:17.951Z,8.15
2018-12-06T14:44:24.221Z,8.25
2018-12-06T14:47:28.906Z,8.16
2018-12-06T14:50:33.465Z,8.13
2018-12-06T14:53:40.711Z,7.62
2018-12-06T14:56:47.650Z,7.43
2018-12-06T14:59:52.603Z,7.00
2018-12-06T15:03:00.978Z,7.12
2018-12-06T15:06:05.618Z,7.20
2018-12-06T15:09:10.154Z,6.88
2018-12-06T15:12:14.782Z,7.24
2018-12-06T15:15:20.019Z,7.24
2018-12-06T15:18:24.556Z,7.13
2018-12-06T15:21:29.935Z,7.27
2018-12-06T15:24:34.534Z,7.14
2018-12-06T15:27:39.427Z,6.89
2018-12-06T15:30:44.054Z,7.15
2018-12-06T15:33:48.735Z,7.04
2018-12-06T15:36:53.377Z,7.32
2018-12-06T15:39:57.909Z,7.02
2018-12-06T15:43:02.487Z,6.60
2018-12-06T15:46:07.123Z,6.51
2018-12-06T15:49:11.691Z,7.07
2018-12-06T15:52:16.236Z,6.78
2018-12-06T15:55:20.811Z,6.63
2018-12-06T15:58:25.335Z,6.65
2018-12-06T16:01:29.951Z,6.40
2018-12-06T16:04:34.612Z,6.52
2018-12-06T16:07:39.309Z,6.30
2018-12-06T16:10:45.134Z,6.53
2018-12-06T16:13:49.755Z,6.34
2018-12-06T16:16:54.434Z,6.44
2018-12-06T16:19:59.016Z,6.41
2018-12-06T16:23:03.582Z,6.59
2018-12-06T16:26:08.186Z,6.68
2018-12-06T16:29:12.738Z,6.44
2018-12-06T16:32:18.093Z,6.39
2018-12-06T16:35:22.743Z,6.24
2018-12-06T16:38:27.357Z,6.19
2018-12-06T16:41:31.893Z,6.35
2018-12-06T16:44:36.429Z,6.25
2018-12-06T16:47:41.092Z,6.33
2018-12-06T16:50:46.457Z,6.44
2018-12-06T16:54:25.773Z,6.44
2018-12-06T16:57:30.327Z,6.29
2018-12-06T17:00:34.842Z,6.36
2018-12-06T17:03:40.578Z,6.26
2018-12-06T17:06:45.274Z,6.08
2018-12-06T17:09:50.763Z,6.32
2018-12-06T17:13:00.561Z,5.68
2018-12-06T17:16:08.865Z,6.07
2018-12-06T17:19:13.458Z,5.60
2018-12-06T17:22:18.005Z,5.72
2018-12-06T17:25:22.566Z,5.72
2018-12-06T17:28:27.109Z,5.59
2018-12-06T17:31:31.673Z,5.66
2018-12-06T17:34:36.263Z,5.90
2018-12-06T17:37:40.863Z,5.73
2018-12-06T17:40:45.523Z,5.94
2018-12-06T17:43:50.126Z,5.87
2018-12-06T17:46:57.750Z,6.00
2018-12-06T17:50:02.325Z,5.56
2018-12-06T17:53:08.049Z,5.51
2018-12-06T17:56:12.605Z,5.33
2018-12-06T17:59:17.134Z,5.52
2018-12-06T18:02:21.689Z,5.62
2018-12-06T18:05:26.295Z,5.33
2018-12-06T18:08:30.875Z,5.47
2018-12-06T18:11:35.466Z,5.33
2018-12-06T18:14:40.107Z,5.43
2018-12-06T18:17:44.713Z,5.46
2018-12-06T18:20:50.985Z,5.09
2018-12-06T18:23:55.525Z,5.18
2018-12-06T18:27:00.564Z,5.12
2018-12-06T18:30:06.231Z,5.00
2018-12-06T18:33:10.827Z,4.74
2018-12-06T18:36:15.427Z,4.78
2018-12-06T18:39:19.990Z,4.81
2018-12-06T18:42:24.544Z,5.23
2018-12-06T18:45:29.148Z,5.06
2018-12-06T18:48:33.817Z,5.14
2018-12-06T18:51:38.351Z,4.97
2018-12-06T18:54:42.946Z,5.32
2018-12-06T18:57:47.464Z,5.10
2018-12-06T19:00:52.024Z,5.36
2018-12-06T19:03:56.574Z,5.34
2018-12-06T19:07:01.126Z,5.20
2018-12-06T19:10:06.331Z,5.15
2018-12-06T19:13:11.063Z,5.38
2018-12-06T19:16:15.659Z,4.82
2018-12-06T19:19:20.311Z,5.11
2018-12-06T19:22:24.831Z,5.03
2018-12-06T19:25:29.475Z,4.78
2018-12-06T19:28:34.161Z,5.23
2018-12-06T19:31:38.695Z,5.40
2018-12-06T19:34:43.837Z,5.15
2018-12-06T19:37:48.530Z,5.39
2018-12-06T19:40:53.128Z,5.38
2018-12-06T19:43:57.759Z,5.66
2018-12-06T19:47:02.302Z,5.34
2018-12-06T19:50:07.954Z,5.72
2018-12-06T19:53:12.465Z,5.82
2018-12-06T19:56:17.673Z,5.88
2018-12-06T19:59:22.448Z,5.73
2018-12-06T20:02:34.772Z,5.73
2018-12-06T20:05:39.437Z,5.98
2018-12-06T20:08:43.986Z,5.53
2018-12-06T20:11:49.657Z,5.74
2018-12-06T20:14:54.316Z,5.50
2018-12-06T20:17:58.833Z,5.69
2018-12-06T20:21:03.381Z,5.43
2018-12-06T20:24:07.983Z,5.54
2018-12-06T20:27:12.502Z,5.40
2018-12-06T20:30:17.227Z,5.50
2018-12-06T20:33:21.937Z,5.25
2018-12-06T20:36:26.511Z,5.38
2018-12-06T20:39:31.095Z,5.13
2018-12-06T20:42:35.720Z,5.09
2018-12-06T20:45:40.290Z,5.39
2018-12-06T20:48:44.821Z,5.90
2018-12-06T20:51:49.569Z,5.77
2018-12-06T20:54:54.323Z,5.89
2018-12-06T20:57:58.882Z,4.95
2018-12-06T21:01:03.577Z,4.75
2018-12-06T21:04:08.203Z,4.33
2018-12-06T21:07:12.706Z,5.08
2018-12-06T21:10:17.235Z,5.43
2018-12-06T21:13:22.018Z,4.94
2018-12-06T21:16:26.700Z,5.42
2018-12-06T21:19:31.242Z,5.76
2018-12-06T21:22:35.826Z,4.90
2018-12-06T21:25:40.535Z,5.53
2018-12-06T21:28:46.334Z,5.73
2018-12-06T21:31:50.857Z,5.83
2018-12-06T21:34:55.440Z,5.80
2018-12-06T21:38:00.046Z,5.81
2018-12-06T21:41:04.658Z,5.92
2018-12-06T21:44:09.278Z,5.80
2018-12-06T21:47:17.924Z,5.91
2018-12-06T21:50:22.459Z,5.60
2018-12-06T21:53:27.088Z,5.88
2018-12-06T21:56:32.437Z,5.80
2018-12-06T21:59:37.206Z,5.77
2018-12-06T22:02:41.730Z,5.81
2018-12-06T22:05:47.412Z,5.94
2018-12-06T22:08:51.970Z,6.00
2018-12-06T22:11:56.525Z,5.87
2018-12-06T22:15:01.120Z,5.39
2018-12-06T22:18:05.907Z,5.47
2018-12-06T22:21:10.521Z,5.85
2018-12-06T22:24:15.066Z,5.54
2018-12-06T22:27:19.629Z,5.67
2018-12-06T22:30:24.215Z,5.73
2018-12-06T22:33:28.804Z,5.81
2018-12-06T22:36:33.366Z,5.80
2018-12-06T22:39:37.918Z,5.68
2018-12-06T22:42:42.415Z,5.72
2018-12-06T22:46:00.382Z,5.68
2018-12-06T22:49:04.936Z,5.46
2018-12-06T22:52:09.568Z,5.03
2018-12-06T22:55:14.186Z,5.34
2018-12-06T22:58:18.732Z,5.52
2018-12-06T23:01:28.358Z,5.70
2018-12-06T23:04:33.111Z,5.55
2018-12-06T23:07:37.811Z,5.59
2018-12-06T23:10:42.428Z,5.66
2018-12-06T23:13:47.097Z,5.78
2018-12-06T23:16:51.626Z,5.68
2018-12-06T23:19:56.130Z,5.66
2018-12-06T23:23:00.675Z,5.73
2018-12-06T23:26:05.197Z,5.47
2018-12-06T23:29:09.749Z,5.64
2018-12-06T23:32:14.369Z,5.57
2018-12-06T23:35:21.006Z,5.61
2018-12-06T23:38:25.528Z,5.81
2018-12-06T23:41:30.026Z,5.86
2018-12-06T23:44:34.575Z,5.95
2018-12-06T23:47:39.117Z,5.83
2018-12-06T23:50:43.718Z,5.88
2018-12-06T23:53:49.418Z,5.92
2018-12-06T23:56:53.945Z,5.83
2018-12-06T23:59:58.544Z,5.92
